sensor_id;sensor_type;location;lat;lon;timestamp;pressure;altitude;pressure_sealevel;temperature
69415;BMP280;56608;43.530;-5.652;2022-12-18T00:00:33;101531.53;;;10.15
69415;BMP280;56608;43.530;-5.652;2022-12-18T00:01:36;101537.19;;;10.21
69415;BMP280;56608;43.530;-5.652;2022-12-18T00:02:37;101536.50;;;10.17
69415;BMP280;56608;43.530;-5.652;2022-12-18T00:03:39;101533.34;;;10.22
69415;BMP280;56608;43.530;-5.652;2022-12-18T00:04:40;101521.09;;;10.21
69415;BMP280;56608;43.530;-5.652;2022-12-18T00:05:51;101528.34;;;10.24
69415;BMP280;56608;43.530;-5.652;2022-12-18T00:06:53;101532.47;;;10.28
69415;BMP280;56608;43.530;-5.652;2022-12-18T00:07:55;101522.56;;;10.25
69415;BMP280;56608;43.530;-5.652;2022-12-18T00:08:58;101520.97;;;10.28
69415;BMP280;56608;43.530;-5.652;2022-12-18T00:09:59;101521.72;;;10.28
69415;BMP280;56608;43.530;-5.652;2022-12-18T00:11:05;101515.13;;;10.33
69415;BMP280;56608;43.530;-5.652;2022-12-18T00:12:07;101524.00;;;10.30
69415;BMP280;56608;43.530;-5.652;2022-12-18T00:13:08;101511.72;;;10.29
69415;BMP280;56608;43.530;-5.652;2022-12-18T00:14:11;101512.44;;;10.33
69415;BMP280;56608;43.530;-5.652;2022-12-18T00:15:12;101519.78;;;10.29
69415;BMP280;56608;43.530;-5.652;2022-12-18T00:16:15;101518.00;;;10.22
69415;BMP280;56608;43.530;-5.652;2022-12-18T00:17:17;101513.53;;;10.12
69415;BMP280;56608;43.530;-5.652;2022-12-18T00:18:18;101515.03;;;10.17
69415;BMP280;56608;43.530;-5.652;2022-12-18T00:19:19;101506.22;;;10.13
69415;BMP280;56608;43.530;-5.652;2022-12-18T00:20:21;101519.78;;;10.06
69415;BMP280;56608;43.530;-5.652;2022-12-18T00:21:27;101514.75;;;10.08
69415;BMP280;56608;43.530;-5.652;2022-12-18T00:22:29;101511.47;;;9.96
69415;BMP280;56608;43.530;-5.652;2022-12-18T00:23:31;101514.69;;;9.88
69415;BMP280;56608;43.530;-5.652;2022-12-18T00:24:33;101510.44;;;9.90
69415;BMP280;56608;43.530;-5.652;2022-12-18T00:25:35;101508.94;;;9.86
69415;BMP280;56608;43.530;-5.652;2022-12-18T00:26:37;101509.56;;;9.97
69415;BMP280;56608;43.530;-5.652;2022-12-18T00:27:39;101506.22;;;9.89
69415;BMP280;56608;43.530;-5.652;2022-12-18T00:28:41;101502.38;;;9.90
69415;BMP280;56608;43.530;-5.652;2022-12-18T00:29:43;101498.25;;;9.82
69415;BMP280;56608;43.530;-5.652;2022-12-18T00:30:45;101497.94;;;9.77
69415;BMP280;56608;43.530;-5.652;2022-12-18T00:31:46;101491.13;;;9.72
69415;BMP280;56608;43.530;-5.652;2022-12-18T00:32:47;101490.50;;;9.61
69415;BMP280;56608;43.530;-5.652;2022-12-18T00:33:48;101486.28;;;9.63
69415;BMP280;56608;43.530;-5.652;2022-12-18T00:34:50;101484.72;;;9.66
69415;BMP280;56608;43.530;-5.652;2022-12-18T00:35:51;101482.03;;;9.66
69415;BMP280;56608;43.530;-5.652;2022-12-18T00:36:52;101485.81;;;9.69
69415;BMP280;56608;43.530;-5.652;2022-12-18T00:37:54;101494.25;;;9.67
69415;BMP280;56608;43.530;-5.652;2022-12-18T00:38:57;101494.63;;;9.69
69415;BMP280;56608;43.530;-5.652;2022-12-18T00:39:59;101488.13;;;9.67
69415;BMP280;56608;43.530;-5.652;2022-12-18T00:41:00;101479.88;;;9.54
69415;BMP280;56608;43.530;-5.652;2022-12-18T00:42:01;101488.19;;;9.63
69415;BMP280;56608;43.530;-5.652;2022-12-18T00:43:20;101477.00;;;9.68
69415;BMP280;56608;43.530;-5.652;2022-12-18T00:44:22;101471.19;;;9.73
69415;BMP280;56608;43.530;-5.652;2022-12-18T00:45:28;101463.53;;;9.72
69415;BMP280;56608;43.530;-5.652;2022-12-18T00:46:29;101465.06;;;9.73
69415;BMP280;56608;43.530;-5.652;2022-12-18T00:47:31;101472.75;;;9.71
69415;BMP280;56608;43.530;-5.652;2022-12-18T00:48:32;101457.88;;;9.66
69415;BMP280;56608;43.530;-5.652;2022-12-18T00:49:34;101459.84;;;9.62
69415;BMP280;56608;43.530;-5.652;2022-12-18T00:50:35;101455.59;;;9.65
69415;BMP280;56608;43.530;-5.652;2022-12-18T00:51:36;101455.25;;;9.62
69415;BMP280;56608;43.530;-5.652;2022-12-18T00:52:38;101454.50;;;9.62
69415;BMP280;56608;43.530;-5.652;2022-12-18T00:53:39;101451.53;;;9.53
69415;BMP280;56608;43.530;-5.652;2022-12-18T00:54:41;101455.38;;;9.52
69415;BMP280;56608;43.530;-5.652;2022-12-18T00:55:43;101463.50;;;9.48
69415;BMP280;56608;43.530;-5.652;2022-12-18T00:56:45;101465.28;;;9.55
69415;BMP280;56608;43.530;-5.652;2022-12-18T00:57:45;101467.59;;;9.56
69415;BMP280;56608;43.530;-5.652;2022-12-18T00:58:47;101459.94;;;9.55
69415;BMP280;56608;43.530;-5.652;2022-12-18T00:59:49;101460.69;;;9.55
69415;BMP280;56608;43.530;-5.652;2022-12-18T01:00:50;101461.38;;;9.59
69415;BMP280;56608;43.530;-5.652;2022-12-18T01:01:51;101463.25;;;9.66
69415;BMP280;56608;43.530;-5.652;2022-12-18T01:02:53;101458.97;;;9.69
69415;BMP280;56608;43.530;-5.652;2022-12-18T01:03:54;101457.41;;;9.71
69415;BMP280;56608;43.530;-5.652;2022-12-18T01:04:56;101447.03;;;9.73
69415;BMP280;56608;43.530;-5.652;2022-12-18T01:05:57;101435.16;;;9.74
69415;BMP280;56608;43.530;-5.652;2022-12-18T01:06:58;101446.91;;;9.80
69415;BMP280;56608;43.530;-5.652;2022-12-18T01:08:00;101450.31;;;9.84
69415;BMP280;56608;43.530;-5.652;2022-12-18T01:09:02;101443.44;;;9.83
69415;BMP280;56608;43.530;-5.652;2022-12-18T01:10:04;101455.59;;;9.91
69415;BMP280;56608;43.530;-5.652;2022-12-18T01:11:19;101447.94;;;9.90
69415;BMP280;56608;43.530;-5.652;2022-12-18T01:12:21;101452.56;;;9.86
69415;BMP280;56608;43.530;-5.652;2022-12-18T01:13:22;101444.22;;;9.80
69415;BMP280;56608;43.530;-5.652;2022-12-18T01:14:23;101454.16;;;9.83
69415;BMP280;56608;43.530;-5.652;2022-12-18T01:15:25;101456.84;;;9.83
69415;BMP280;56608;43.530;-5.652;2022-12-18T01:16:26;101456.50;;;9.81
69415;BMP280;56608;43.530;-5.652;2022-12-18T01:17:27;101454.97;;;9.80
69415;BMP280;56608;43.530;-5.652;2022-12-18T01:18:27;101455.72;;;9.81
69415;BMP280;56608;43.530;-5.652;2022-12-18T01:19:29;101454.63;;;9.78
69415;BMP280;56608;43.530;-5.652;2022-12-18T01:20:31;101464.91;;;9.83
69415;BMP280;56608;43.530;-5.652;2022-12-18T01:21:33;101449.66;;;9.77
69415;BMP280;56608;43.530;-5.652;2022-12-18T01:22:34;101463.44;;;9.79
69415;BMP280;56608;43.530;-5.652;2022-12-18T01:23:34;101461.13;;;9.77
69415;BMP280;56608;43.530;-5.652;2022-12-18T01:24:36;101456.53;;;9.78
69415;BMP280;56608;43.530;-5.652;2022-12-18T01:25:38;101457.25;;;9.82
69415;BMP280;56608;43.530;-5.652;2022-12-18T01:26:39;101460.34;;;9.80
69415;BMP280;56608;43.530;-5.652;2022-12-18T01:27:41;101451.88;;;9.82
69415;BMP280;56608;43.530;-5.652;2022-12-18T01:28:43;101459.53;;;9.83
69415;BMP280;56608;43.530;-5.652;2022-12-18T01:29:44;101448.78;;;9.83
69415;BMP280;56608;43.530;-5.652;2022-12-18T01:30:46;101463.28;;;9.89
69415;BMP280;56608;43.530;-5.652;2022-12-18T01:31:47;101462.53;;;9.89
69415;BMP280;56608;43.530;-5.652;2022-12-18T01:32:48;101469.00;;;9.91
69415;BMP280;56608;43.530;-5.652;2022-12-18T01:33:51;101462.91;;;9.87
69415;BMP280;56608;43.530;-5.652;2022-12-18T01:34:53;101457.25;;;9.82
69415;BMP280;56608;43.530;-5.652;2022-12-18T01:35:54;101449.59;;;9.80
69415;BMP280;56608;43.530;-5.652;2022-12-18T01:36:56;101459.53;;;9.83
69415;BMP280;56608;43.530;-5.652;2022-12-18T01:37:58;101449.31;;;9.75
69415;BMP280;56608;43.530;-5.652;2022-12-18T01:39:01;101456.53;;;9.78
69415;BMP280;56608;43.530;-5.652;2022-12-18T01:40:04;101455.44;;;9.75
69415;BMP280;56608;43.530;-5.652;2022-12-18T01:41:05;101454.63;;;9.78
69415;BMP280;56608;43.530;-5.652;2022-12-18T01:42:13;101462.25;;;9.80
69415;BMP280;56608;43.530;-5.652;2022-12-18T01:43:15;101469.56;;;9.79
69415;BMP280;56608;43.530;-5.652;2022-12-18T01:45:52;101468.03;;;9.78
69415;BMP280;56608;43.530;-5.652;2022-12-18T01:46:53;101469.56;;;9.79
69415;BMP280;56608;43.530;-5.652;2022-12-18T01:48:21;101467.97;;;9.82
69415;BMP280;56608;43.530;-5.652;2022-12-18T01:49:22;101463.03;;;9.80
69415;BMP280;56608;43.530;-5.652;2022-12-18T01:50:31;101463.91;;;9.74
69415;BMP280;56608;43.530;-5.652;2022-12-18T01:51:33;101470.87;;;9.68
69415;BMP280;56608;43.530;-5.652;2022-12-18T01:52:35;101466.75;;;9.63
69415;BMP280;56608;43.530;-5.652;2022-12-18T01:53:39;101470.19;;;9.60
69415;BMP280;56608;43.530;-5.652;2022-12-18T01:54:41;101457.59;;;9.57
69415;BMP280;56608;43.530;-5.652;2022-12-18T01:55:53;101458.31;;;9.61
69415;BMP280;56608;43.530;-5.652;2022-12-18T01:56:56;101460.34;;;9.53
69415;BMP280;56608;43.530;-5.652;2022-12-18T01:57:58;101457.69;;;9.50
69415;BMP280;56608;43.530;-5.652;2022-12-18T01:59:06;101462.25;;;9.53
69415;BMP280;56608;43.530;-5.652;2022-12-18T02:00:13;101460.84;;;9.45
69415;BMP280;56608;43.530;-5.652;2022-12-18T02:01:15;101457.88;;;9.39
69415;BMP280;56608;43.530;-5.652;2022-12-18T02:02:17;101463.28;;;9.32
69415;BMP280;56608;43.530;-5.652;2022-12-18T02:03:18;101460.31;;;9.26
69415;BMP280;56608;43.530;-5.652;2022-12-18T02:04:25;101463.28;;;9.32
69415;BMP280;56608;43.530;-5.652;2022-12-18T02:05:38;101465.19;;;9.32
69415;BMP280;56608;43.530;-5.652;2022-12-18T02:06:41;101464.09;;;9.29
69415;BMP280;56608;43.530;-5.652;2022-12-18T02:09:13;101472.00;;;9.09
69415;BMP280;56608;43.530;-5.652;2022-12-18T02:11:05;101470.56;;;9.01
69415;BMP280;56608;43.530;-5.652;2022-12-18T02:15:51;101473.66;;;9.00
69415;BMP280;56608;43.530;-5.652;2022-12-18T02:17:04;101462.53;;;9.01
69415;BMP280;56608;43.530;-5.652;2022-12-18T02:18:16;101471.34;;;8.98
69415;BMP280;56608;43.530;-5.652;2022-12-18T02:19:26;101479.31;;;9.05
69415;BMP280;56608;43.530;-5.652;2022-12-18T02:20:36;101476.69;;;9.02
69415;BMP280;56608;43.530;-5.652;2022-12-18T02:21:57;101488.16;;;9.02
69415;BMP280;56608;43.530;-5.652;2022-12-18T02:23:15;101488.06;;;9.09
69415;BMP280;56608;43.530;-5.652;2022-12-18T02:27:06;101481.94;;;9.09
69415;BMP280;56608;43.530;-5.652;2022-12-18T02:28:12;101478.13;;;9.10
69415;BMP280;56608;43.530;-5.652;2022-12-18T02:29:18;101473.91;;;9.09
69415;BMP280;56608;43.530;-5.652;2022-12-18T02:30:22;101470.41;;;9.15
69415;BMP280;56608;43.530;-5.652;2022-12-18T02:31:26;101475.00;;;9.15
69415;BMP280;56608;43.530;-5.652;2022-12-18T02:32:34;101483.00;;;9.18
69415;BMP280;56608;43.530;-5.652;2022-12-18T02:33:36;101483.38;;;9.20
69415;BMP280;56608;43.530;-5.652;2022-12-18T02:34:40;101478.00;;;9.20
69415;BMP280;56608;43.530;-5.652;2022-12-18T02:35:42;101479.50;;;9.21
69415;BMP280;56608;43.530;-5.652;2022-12-18T02:36:46;101485.19;;;9.27
69415;BMP280;56608;43.530;-5.652;2022-12-18T02:37:48;101476.00;;;9.28
69415;BMP280;56608;43.530;-5.652;2022-12-18T02:38:51;101477.06;;;9.34
69415;BMP280;56608;43.530;-5.652;2022-12-18T02:39:55;101473.53;;;9.41
69415;BMP280;56608;43.530;-5.652;2022-12-18T02:40:58;101468.25;;;9.34
69415;BMP280;56608;43.530;-5.652;2022-12-18T02:42:00;101473.91;;;9.43
69415;BMP280;56608;43.530;-5.652;2022-12-18T02:43:13;101468.59;;;9.36
69415;BMP280;56608;43.530;-5.652;2022-12-18T02:44:15;101479.25;;;9.43
69415;BMP280;56608;43.530;-5.652;2022-12-18T02:45:17;101476.12;;;9.48
69415;BMP280;56608;43.530;-5.652;2022-12-18T02:47:30;101475.72;;;9.49
69415;BMP280;56608;43.530;-5.652;2022-12-18T02:48:34;101486.44;;;9.49
69415;BMP280;56608;43.530;-5.652;2022-12-18T02:51:18;101483.81;;;9.15
69415;BMP280;56608;43.530;-5.652;2022-12-18T02:52:35;101486.31;;;9.30
69415;BMP280;56608;43.530;-5.652;2022-12-18T02:54:00;101487.37;;;9.36
69415;BMP280;56608;43.530;-5.652;2022-12-18T02:55:28;101473.19;;;9.39
69415;BMP280;56608;43.530;-5.652;2022-12-18T02:57:04;101465.19;;;9.32
69415;BMP280;56608;43.530;-5.652;2022-12-18T02:58:34;101461.72;;;9.35
69415;BMP280;56608;43.530;-5.652;2022-12-18T03:00:08;101458.31;;;9.31
69415;BMP280;56608;43.530;-5.652;2022-12-18T03:02:58;101465.56;;;9.37
69415;BMP280;56608;43.530;-5.652;2022-12-18T03:04:26;101467.06;;;9.38
69415;BMP280;56608;43.530;-5.652;2022-12-18T03:05:37;101453.69;;;9.35
69415;BMP280;56608;43.530;-5.652;2022-12-18T03:06:43;101449.88;;;9.32
69415;BMP280;56608;43.530;-5.652;2022-12-18T03:07:50;101442.69;;;9.25
69415;BMP280;56608;43.530;-5.652;2022-12-18T03:08:57;101444.22;;;9.26
69415;BMP280;56608;43.530;-5.652;2022-12-18T03:10:00;101440.41;;;9.24
69415;BMP280;56608;43.530;-5.652;2022-12-18T03:11:04;101438.84;;;9.26
69415;BMP280;56608;43.530;-5.652;2022-12-18T03:12:15;101434.19;;;9.31
69415;BMP280;56608;43.530;-5.652;2022-12-18T03:13:54;101437.34;;;9.25
69415;BMP280;56608;43.530;-5.652;2022-12-18T03:15:13;101437.34;;;9.25
69415;BMP280;56608;43.530;-5.652;2022-12-18T03:16:20;101435.00;;;9.27
69415;BMP280;56608;43.530;-5.652;2022-12-18T03:17:26;101441.81;;;9.32
69415;BMP280;56608;43.530;-5.652;2022-12-18T03:18:39;101438.06;;;9.30
69415;BMP280;56608;43.530;-5.652;2022-12-18T03:19:43;101433.59;;;9.19
69415;BMP280;56608;43.530;-5.652;2022-12-18T03:20:49;101427.06;;;9.20
69415;BMP280;56608;43.530;-5.652;2022-12-18T03:21:55;101432.78;;;9.22
69415;BMP280;56608;43.530;-5.652;2022-12-18T03:23:04;101428.94;;;9.23
69415;BMP280;56608;43.530;-5.652;2022-12-18T03:24:10;101438.50;;;9.24
69415;BMP280;56608;43.530;-5.652;2022-12-18T03:25:14;101430.06;;;9.26
69415;BMP280;56608;43.530;-5.652;2022-12-18T03:26:20;101428.09;;;9.30
69415;BMP280;56608;43.530;-5.652;2022-12-18T03:27:23;101421.78;;;9.13
69415;BMP280;56608;43.530;-5.652;2022-12-18T03:28:28;101417.63;;;9.09
69415;BMP280;56608;43.530;-5.652;2022-12-18T03:29:38;101423.13;;;8.98
69415;BMP280;56608;43.530;-5.652;2022-12-18T03:30:43;101418.88;;;9.01
69415;BMP280;56608;43.530;-5.652;2022-12-18T03:31:54;101411.59;;;9.01
69415;BMP280;56608;43.530;-5.652;2022-12-18T03:33:19;101427.31;;;8.99
69415;BMP280;56608;43.530;-5.652;2022-12-18T03:34:30;101418.88;;;9.01
69415;BMP280;56608;43.530;-5.652;2022-12-18T03:35:36;101423.41;;;9.04
69415;BMP280;56608;43.530;-5.652;2022-12-18T03:36:38;101418.38;;;9.09
69415;BMP280;56608;43.530;-5.652;2022-12-18T03:37:40;101417.94;;;9.14
69415;BMP280;56608;43.530;-5.652;2022-12-18T03:38:41;101414.88;;;9.16
69415;BMP280;56608;43.530;-5.652;2022-12-18T03:39:43;101404.44;;;9.21
69415;BMP280;56608;43.530;-5.652;2022-12-18T03:41:06;101406.31;;;9.24
69415;BMP280;56608;43.530;-5.652;2022-12-18T03:45:43;101398.31;;;9.21
69415;BMP280;56608;43.530;-5.652;2022-12-18T03:47:08;101393.81;;;9.14
69415;BMP280;56608;43.530;-5.652;2022-12-18T03:48:32;101394.16;;;9.20
69415;BMP280;56608;43.530;-5.652;2022-12-18T03:49:39;101396.72;;;9.27
69415;BMP280;56608;43.530;-5.652;2022-12-18T03:52:52;101395.59;;;9.24
69415;BMP280;56608;43.530;-5.652;2022-12-18T03:53:58;101393.28;;;9.26
69415;BMP280;56608;43.530;-5.652;2022-12-18T03:55:02;101395.19;;;9.26
69415;BMP280;56608;43.530;-5.652;2022-12-18T03:56:05;101392.91;;;9.24
69415;BMP280;56608;43.530;-5.652;2022-12-18T03:57:12;101390.88;;;9.32
69415;BMP280;56608;43.530;-5.652;2022-12-18T03:58:17;101379.00;;;9.33
69415;BMP280;56608;43.530;-5.652;2022-12-18T03:59:19;101375.97;;;9.31
69415;BMP280;56608;43.530;-5.652;2022-12-18T04:00:22;101381.28;;;9.35
69415;BMP280;56608;43.530;-5.652;2022-12-18T04:01:27;101380.91;;;9.36
69415;BMP280;56608;43.530;-5.652;2022-12-18T04:02:30;101383.97;;;9.35
69415;BMP280;56608;43.530;-5.652;2022-12-18T04:03:34;101387.50;;;9.28
69415;BMP280;56608;43.530;-5.652;2022-12-18T04:04:37;101381.31;;;9.31
69415;BMP280;56608;43.530;-5.652;2022-12-18T04:05:41;101378.25;;;9.33
69415;BMP280;56608;43.530;-5.652;2022-12-18T04:06:45;101377.94;;;9.27
69415;BMP280;56608;43.530;-5.652;2022-12-18T04:07:47;101381.03;;;9.25
69415;BMP280;56608;43.530;-5.652;2022-12-18T04:08:50;101375.31;;;9.23
69415;BMP280;56608;43.530;-5.652;2022-12-18T04:09:54;101369.53;;;9.25
69415;BMP280;56608;43.530;-5.652;2022-12-18T04:10:57;101356.16;;;9.25
69415;BMP280;56608;43.530;-5.652;2022-12-18T04:11:58;101368.34;;;9.30
69415;BMP280;56608;43.530;-5.652;2022-12-18T04:13:00;101361.78;;;9.31
69415;BMP280;56608;43.530;-5.652;2022-12-18T04:14:01;101354.56;;;9.27
69415;BMP280;56608;43.530;-5.652;2022-12-18T04:15:03;101351.50;;;9.29
69415;BMP280;56608;43.530;-5.652;2022-12-18T04:16:05;101359.88;;;9.31
69415;BMP280;56608;43.530;-5.652;2022-12-18T04:17:06;101357.53;;;9.33
69415;BMP280;56608;43.530;-5.652;2022-12-18T04:18:07;101350.03;;;9.24
69415;BMP280;56608;43.530;-5.652;2022-12-18T04:19:08;101363.03;;;9.26
69415;BMP280;56608;43.530;-5.652;2022-12-18T04:20:10;101364.12;;;9.28
69415;BMP280;56608;43.530;-5.652;2022-12-18T04:21:12;101359.94;;;9.27
69415;BMP280;56608;43.530;-5.652;2022-12-18T04:22:13;101351.66;;;9.18
69415;BMP280;56608;43.530;-5.652;2022-12-18T04:23:15;101348.34;;;9.07
69415;BMP280;56608;43.530;-5.652;2022-12-18T04:24:16;101355.91;;;9.16
69415;BMP280;56608;43.530;-5.652;2022-12-18T04:25:18;101364.59;;;9.23
69415;BMP280;56608;43.530;-5.652;2022-12-18T04:26:19;101363.06;;;9.22
69415;BMP280;56608;43.530;-5.652;2022-12-18T04:27:20;101352.41;;;9.19
69415;BMP280;56608;43.530;-5.652;2022-12-18T04:28:22;101354.69;;;9.20
69415;BMP280;56608;43.530;-5.652;2022-12-18T04:29:23;101353.22;;;9.16
69415;BMP280;56608;43.530;-5.652;2022-12-18T04:30:25;101355.50;;;9.17
69415;BMP280;56608;43.530;-5.652;2022-12-18T04:31:26;101353.16;;;9.19
69415;BMP280;56608;43.530;-5.652;2022-12-18T04:32:27;101347.38;;;9.21
69415;BMP280;56608;43.530;-5.652;2022-12-18T04:33:29;101338.69;;;9.13
69415;BMP280;56608;43.530;-5.652;2022-12-18T04:34:30;101339.06;;;9.15
69415;BMP280;56608;43.530;-5.652;2022-12-18T04:35:32;101338.66;;;9.17
69415;BMP280;56608;43.530;-5.652;2022-12-18T04:36:33;101343.25;;;9.16
69415;BMP280;56608;43.530;-5.652;2022-12-18T04:37:34;101340.56;;;9.16
69415;BMP280;56608;43.530;-5.652;2022-12-18T04:38:36;101337.53;;;9.14
69415;BMP280;56608;43.530;-5.652;2022-12-18T04:39:37;101336.13;;;9.03
69415;BMP280;56608;43.530;-5.652;2022-12-18T04:40:39;101351.00;;;9.07
69415;BMP280;56608;43.530;-5.652;2022-12-18T04:41:40;101351.13;;;9.00
69415;BMP280;56608;43.530;-5.652;2022-12-18T04:42:41;101349.59;;;8.99
69415;BMP280;56608;43.530;-5.652;2022-12-18T04:43:43;101357.28;;;8.97
69415;BMP280;56608;43.530;-5.652;2022-12-18T04:44:44;101362.22;;;9.02
69415;BMP280;56608;43.530;-5.652;2022-12-18T04:45:46;101357.31;;;8.93
69415;BMP280;56608;43.530;-5.652;2022-12-18T04:46:47;101358.09;;;8.94
69415;BMP280;56608;43.530;-5.652;2022-12-18T04:47:48;101361.12;;;8.96
69415;BMP280;56608;43.530;-5.652;2022-12-18T04:48:50;101354.34;;;8.88
69415;BMP280;56608;43.530;-5.652;2022-12-18T04:49:51;101353.56;;;8.91
69415;BMP280;56608;43.530;-5.652;2022-12-18T04:50:52;101365.78;;;8.92
69415;BMP280;56608;43.530;-5.652;2022-12-18T04:51:54;101358.09;;;8.94
69415;BMP280;56608;43.530;-5.652;2022-12-18T04:52:56;101359.56;;;8.99
69415;BMP280;56608;43.530;-5.652;2022-12-18T04:53:57;101359.84;;;9.04
69415;BMP280;56608;43.530;-5.652;2022-12-18T04:54:59;101355.66;;;9.03
69415;BMP280;56608;43.530;-5.652;2022-12-18T04:57:04;101359.47;;;9.06
69415;BMP280;56608;43.530;-5.652;2022-12-18T04:58:06;101363.66;;;9.07
69415;BMP280;56608;43.530;-5.652;2022-12-18T04:59:07;101356.84;;;9.02
69415;BMP280;56608;43.530;-5.652;2022-12-18T05:00:08;101365.19;;;9.08
69415;BMP280;56608;43.530;-5.652;2022-12-18T05:01:11;101359.81;;;9.11
69415;BMP280;56608;43.530;-5.652;2022-12-18T05:02:13;101361.75;;;9.07
69415;BMP280;56608;43.530;-5.652;2022-12-18T05:03:14;101359.37;;;9.13
69415;BMP280;56608;43.530;-5.652;2022-12-18T05:04:15;101355.13;;;9.15
69415;BMP280;56608;43.530;-5.652;2022-12-18T05:05:17;101351.66;;;9.18
69415;BMP280;56608;43.530;-5.652;2022-12-18T05:06:18;101362.31;;;9.22
69415;BMP280;56608;43.530;-5.652;2022-12-18T05:07:20;101350.41;;;9.23
69415;BMP280;56608;43.530;-5.652;2022-12-18T05:08:21;101361.09;;;9.26
69415;BMP280;56608;43.530;-5.652;2022-12-18T05:09:23;101356.88;;;9.29
69415;BMP280;56608;43.530;-5.652;2022-12-18T05:10:23;101356.78;;;9.33
69415;BMP280;56608;43.530;-5.652;2022-12-18T05:11:25;101351.06;;;9.31
69415;BMP280;56608;43.530;-5.652;2022-12-18T05:12:26;101346.22;;;9.22
69415;BMP280;56608;43.530;-5.652;2022-12-18T05:13:28;101353.22;;;9.16
69415;BMP280;56608;43.530;-5.652;2022-12-18T05:14:29;101353.34;;;9.05
69415;BMP280;56608;43.530;-5.652;2022-12-18T05:15:32;101358.00;;;9.01
69415;BMP280;56608;43.530;-5.652;2022-12-18T05:16:33;101356.56;;;8.93
69415;BMP280;56608;43.530;-5.652;2022-12-18T05:17:35;101364.25;;;8.91
69415;BMP280;56608;43.530;-5.652;2022-12-18T05:18:36;101366.59;;;8.89
69415;BMP280;56608;43.530;-5.652;2022-12-18T05:19:38;101356.31;;;8.84
69415;BMP280;56608;43.530;-5.652;2022-12-18T05:20:39;101358.53;;;8.89
69415;BMP280;56608;43.530;-5.652;2022-12-18T05:21:40;101357.38;;;8.90
69415;BMP280;56608;43.530;-5.652;2022-12-18T05:22:41;101348.19;;;8.91
69415;BMP280;56608;43.530;-5.652;2022-12-18T05:23:43;101349.28;;;8.93
69415;BMP280;56608;43.530;-5.652;2022-12-18T05:24:44;101353.81;;;9.00
69415;BMP280;56608;43.530;-5.652;2022-12-18T05:25:53;101364.16;;;8.98
69415;BMP280;56608;43.530;-5.652;2022-12-18T05:26:54;101353.47;;;8.95
69415;BMP280;56608;43.530;-5.652;2022-12-18T05:27:56;101353.09;;;8.96
69415;BMP280;56608;43.530;-5.652;2022-12-18T05:28:56;101355.06;;;8.92
69415;BMP280;56608;43.530;-5.652;2022-12-18T05:29:58;101359.72;;;8.88
69415;BMP280;56608;43.530;-5.652;2022-12-18T05:31:00;101352.03;;;8.90
69415;BMP280;56608;43.530;-5.652;2022-12-18T05:32:03;101357.44;;;8.86
69415;BMP280;56608;43.530;-5.652;2022-12-18T05:33:04;101347.84;;;8.89
69415;BMP280;56608;43.530;-5.652;2022-12-18T05:34:06;101351.91;;;8.97
69415;BMP280;56608;43.530;-5.652;2022-12-18T05:35:08;101354.59;;;8.97
69415;BMP280;56608;43.530;-5.652;2022-12-18T05:36:10;101354.97;;;8.99
69415;BMP280;56608;43.530;-5.652;2022-12-18T05:37:12;101354.59;;;8.97
69415;BMP280;56608;43.530;-5.652;2022-12-18T05:38:14;101356.84;;;9.02
69415;BMP280;56608;43.530;-5.652;2022-12-18T05:39:15;101351.50;;;9.02
69415;BMP280;56608;43.530;-5.652;2022-12-18T05:40:15;101350.25;;;9.07
69415;BMP280;56608;43.530;-5.652;2022-12-18T05:41:17;101351.38;;;9.09
69415;BMP280;56608;43.530;-5.652;2022-12-18T05:42:19;101364.81;;;9.06
69415;BMP280;56608;43.530;-5.652;2022-12-18T05:43:20;101357.28;;;8.97
69415;BMP280;56608;43.530;-5.652;2022-12-18T05:44:25;101363.00;;;8.99
69415;BMP280;56608;43.530;-5.652;2022-12-18T05:45:27;101361.91;;;8.93
69415;BMP280;56608;43.530;-5.652;2022-12-18T05:46:28;101368.03;;;8.93
69415;BMP280;56608;43.530;-5.652;2022-12-18T05:47:30;101370.78;;;8.90
69415;BMP280;56608;43.530;-5.652;2022-12-18T05:48:30;101367.28;;;8.93
69415;BMP280;56608;43.530;-5.652;2022-12-18T05:49:32;101367.72;;;8.91
69415;BMP280;56608;43.530;-5.652;2022-12-18T05:50:38;101369.97;;;8.93
69415;BMP280;56608;43.530;-5.652;2022-12-18T05:51:39;101365.44;;;8.90
69415;BMP280;56608;43.530;-5.652;2022-12-18T05:52:41;101361.91;;;8.93
69415;BMP280;56608;43.530;-5.652;2022-12-18T05:53:42;101362.28;;;8.95
69415;BMP280;56608;43.530;-5.652;2022-12-18T05:54:44;101356.50;;;9.00
69415;BMP280;56608;43.530;-5.652;2022-12-18T05:55:46;101356.41;;;9.04
69415;BMP280;56608;43.530;-5.652;2022-12-18T05:56:47;101353.69;;;9.07
69415;BMP280;56608;43.530;-5.652;2022-12-18T05:57:49;101347.97;;;9.05
69415;BMP280;56608;43.530;-5.652;2022-12-18T05:58:54;101354.16;;;9.02
69415;BMP280;56608;43.530;-5.652;2022-12-18T05:59:55;101356.03;;;9.05
69415;BMP280;56608;43.530;-5.652;2022-12-18T06:00:56;101354.84;;;9.06
69415;BMP280;56608;43.530;-5.652;2022-12-18T06:01:58;101352.56;;;9.05
69415;BMP280;56608;43.530;-5.652;2022-12-18T06:02:59;101359.09;;;9.04
69415;BMP280;56608;43.530;-5.652;2022-12-18T06:04:00;101363.25;;;9.08
69415;BMP280;56608;43.530;-5.652;2022-12-18T06:05:02;101364.41;;;9.11
69415;BMP280;56608;43.530;-5.652;2022-12-18T06:06:04;101355.22;;;9.08
69415;BMP280;56608;43.530;-5.652;2022-12-18T06:07:04;101357.12;;;9.08
69415;BMP280;56608;43.530;-5.652;2022-12-18T06:08:07;101358.34;;;9.03
69415;BMP280;56608;43.530;-5.652;2022-12-18T06:09:08;101359.56;;;8.99
69415;BMP280;56608;43.530;-5.652;2022-12-18T06:10:10;101357.19;;;9.04
69415;BMP280;56608;43.530;-5.652;2022-12-18T06:11:15;101357.91;;;9.08
69415;BMP280;56608;43.530;-5.652;2022-12-18T06:12:16;101364.81;;;9.06
69415;BMP280;56608;43.530;-5.652;2022-12-18T06:13:17;101369.16;;;8.96
69415;BMP280;56608;43.530;-5.652;2022-12-18T06:14:19;101358.16;;;8.90
69415;BMP280;56608;43.530;-5.652;2022-12-18T06:15:20;101359.59;;;8.95
69415;BMP280;56608;43.530;-5.652;2022-12-18T06:16:21;101367.28;;;8.93
69415;BMP280;56608;43.530;-5.652;2022-12-18T06:17:23;101358.19;;;8.87
69415;BMP280;56608;43.530;-5.652;2022-12-18T06:18:24;101363.53;;;8.87
69415;BMP280;56608;43.530;-5.652;2022-12-18T06:19:25;101351.31;;;8.86
69415;BMP280;56608;43.530;-5.652;2022-12-18T06:20:26;101355.94;;;8.82
69415;BMP280;56608;43.530;-5.652;2022-12-18T06:21:28;101349.34;;;8.90
69415;BMP280;56608;43.530;-5.652;2022-12-18T06:22:31;101342.84;;;8.91
69415;BMP280;56608;43.530;-5.652;2022-12-18T06:23:33;101349.66;;;8.96
69415;BMP280;56608;43.530;-5.652;2022-12-18T06:24:34;101353.03;;;9.00